createdAt,value
2022-09-01T05:00:35.514Z,100636.40
2022-09-01T05:03:04.126Z,100633.00
2022-09-01T05:05:44.941Z,100632.20
2022-09-01T05:08:23.554Z,100631.40
2022-09-01T05:10:55.280Z,100631.20
2022-09-01T05:13:24.055Z,100637.60
2022-09-01T05:16:05.773Z,100636.40
2022-09-01T05:18:33.930Z,100632.00
2022-09-01T05:21:09.769Z,100636.80
2022-09-01T05:23:40.328Z,100633.80
2022-09-01T05:26:31.432Z,100637.20
2022-09-01T05:29:03.248Z,100634.60
2022-09-01T05:31:34.445Z,100629.80
2022-09-01T05:34:03.169Z,100634.40
2022-09-01T05:36:33.191Z,100629.20
2022-09-01T05:39:02.009Z,100633.00
2022-09-01T05:41:29.690Z,100634.80
2022-09-01T05:44:00.539Z,100637.60
2022-09-01T05:46:29.568Z,100639.20
2022-09-01T05:48:57.671Z,100645.80
2022-09-01T05:51:44.031Z,100652.20
2022-09-01T05:54:14.047Z,100652.40
2022-09-01T05:56:43.944Z,100655.40
2022-09-01T05:59:24.000Z,100651.40
2022-09-01T06:01:54.425Z,100649.80
2022-09-01T06:04:27.688Z,100651.80
2022-09-01T06:07:15.711Z,100656.80
2022-09-01T06:09:48.469Z,100656.60
2022-09-01T06:12:19.768Z,100656.00
2022-09-01T06:14:49.540Z,100659.00
2022-09-01T06:17:24.517Z,100657.20
2022-09-01T06:19:57.816Z,100654.80
2022-09-01T06:22:28.949Z,100655.80
2022-09-01T06:25:01.160Z,100659.40
2022-09-01T06:27:30.314Z,100657.40
2022-09-01T06:29:58.122Z,100656.20
2022-09-01T06:32:26.990Z,100653.60
2022-09-01T06:34:57.810Z,100657.00
2022-09-01T06:37:25.478Z,100655.20
2022-09-01T06:39:52.926Z,100660.80
2022-09-01T06:42:22.859Z,100659.20
2022-09-01T06:44:50.511Z,100660.80
2022-09-01T06:47:19.290Z,100667.20
2022-09-01T06:49:46.648Z,100661.40
2022-09-01T06:52:15.768Z,100666.40
2022-09-01T06:54:44.252Z,100665.40
2022-09-01T07:00:00.251Z,100665.40
2022-09-01T07:02:30.052Z,100663.60
2022-09-01T07:05:02.840Z,100663.00
2022-09-01T07:10:26.051Z,100665.80
2022-09-01T07:13:12.924Z,100666.40
2022-09-01T07:18:31.788Z,100667.60
2022-09-01T07:24:07.873Z,100671.80
2022-09-01T07:26:46.293Z,100671.60
2022-09-01T07:29:18.188Z,100670.80
2022-09-01T07:34:38.830Z,100675.60
2022-09-01T07:39:55.968Z,100680.80
2022-09-01T07:42:56.478Z,100670.80
2022-09-01T07:45:29.310Z,100684.00
2022-09-01T07:48:02.828Z,100687.40
2022-09-01T07:50:41.361Z,100686.00
2022-09-01T07:53:23.069Z,100686.20
2022-09-01T07:55:53.327Z,100687.20
2022-09-01T07:58:24.508Z,100688.00
2022-09-01T08:00:54.188Z,100687.00
2022-09-01T08:03:25.853Z,100683.80
2022-09-01T08:05:57.695Z,100686.60
2022-09-01T08:08:29.084Z,100684.80
2022-09-01T08:11:04.943Z,100685.40
2022-09-01T08:13:41.634Z,100687.40
2022-09-01T08:16:19.277Z,100693.20
2022-09-01T08:18:49.571Z,100699.40
2022-09-01T08:21:22.988Z,100695.00
2022-09-01T08:23:53.759Z,100695.00
2022-09-01T08:26:26.429Z,100697.40
2022-09-01T08:28:56.001Z,100700.00
2022-09-01T08:31:25.996Z,100700.20
2022-09-01T08:33:59.810Z,100694.20
2022-09-01T08:36:27.742Z,100694.40
2022-09-01T08:38:55.406Z,100696.20
2022-09-01T08:41:46.879Z,100697.80
2022-09-01T08:44:50.728Z,100690.20
2022-09-01T08:47:28.842Z,100693.60
2022-09-01T08:50:00.131Z,100692.40
2022-09-01T08:52:38.717Z,100695.80
2022-09-01T08:55:11.167Z,100698.00
2022-09-01T08:57:43.797Z,100697.20
2022-09-01T09:00:17.931Z,100704.20
2022-09-01T09:03:40.425Z,100698.00
2022-09-01T09:06:21.841Z,100702.20
2022-09-01T09:08:57.601Z,100701.00
2022-09-01T09:11:41.509Z,100699.60
2022-09-01T09:14:50.529Z,100697.60
2022-09-01T09:17:25.977Z,100697.60
2022-09-01T09:19:54.349Z,100702.20
2022-09-01T09:22:22.379Z,100696.80
2022-09-01T09:25:00.238Z,100691.40
2022-09-01T09:27:36.002Z,100700.00
2022-09-01T09:30:27.908Z,100689.80
2022-09-01T09:35:54.112Z,100692.00
2022-09-01T09:38:29.174Z,100700.00
2022-09-01T09:41:27.443Z,100695.00
2022-09-01T09:44:05.591Z,100692.20
2022-09-01T09:46:39.901Z,100687.80
2022-09-01T09:49:34.896Z,100687.40
2022-09-01T09:52:08.617Z,100690.20
2022-09-01T09:54:57.790Z,100684.00
2022-09-01T09:57:25.648Z,100686.60
2022-09-01T10:00:00.652Z,100683.80
2022-09-01T10:02:34.597Z,100686.40
2022-09-01T10:05:27.689Z,100682.60
2022-09-01T10:07:58.070Z,100684.40
2022-09-01T10:10:57.747Z,100682.40
2022-09-01T10:13:33.572Z,100680.40
2022-09-01T10:16:21.926Z,100675.00
2022-09-01T10:18:52.059Z,100675.60
2022-09-01T10:21:30.530Z,100679.00
2022-09-01T10:24:20.585Z,100674.00
2022-09-01T10:26:55.848Z,100672.40
2022-09-01T10:29:48.583Z,100671.80
2022-09-01T10:32:42.149Z,100668.60
2022-09-01T10:35:34.410Z,100667.40
2022-09-01T10:38:11.962Z,100666.60
2022-09-01T10:40:50.283Z,100664.80
2022-09-01T10:43:36.286Z,100659.40
2022-09-01T10:46:25.915Z,100657.80
2022-09-01T10:49:03.236Z,100666.40
2022-09-01T10:51:36.274Z,100667.60
2022-09-01T10:54:06.755Z,100664.60
2022-09-01T10:56:51.422Z,100680.20
2022-09-01T10:59:44.062Z,100672.20
2022-09-01T11:02:24.990Z,100667.40
2022-09-01T11:05:00.578Z,100667.20
2022-09-01T11:08:00.379Z,100663.60
2022-09-01T11:10:47.569Z,100661.60
2022-09-01T11:13:50.153Z,100669.20
2022-09-01T11:16:48.124Z,100678.40
2022-09-01T11:19:47.960Z,100670.80
2022-09-01T11:22:26.453Z,100666.60
2022-09-01T11:25:40.622Z,100677.20
2022-09-01T11:28:41.906Z,100668.80
2022-09-01T11:31:09.309Z,100678.60
2022-09-01T11:34:23.473Z,100669.60
2022-09-01T11:37:01.217Z,100670.80
2022-09-01T11:39:41.029Z,100667.80
2022-09-01T11:42:19.229Z,100658.00
2022-09-01T11:45:00.191Z,100672.00
2022-09-01T11:47:36.246Z,100666.60
2022-09-01T11:50:20.120Z,100666.40
2022-09-01T11:53:22.490Z,100662.60
2022-09-01T11:55:54.575Z,100660.40
2022-09-01T11:58:28.747Z,100666.40
2022-09-01T12:01:11.988Z,100667.00
2022-09-01T12:03:40.765Z,100664.40
2022-09-01T12:06:18.172Z,100655.00
2022-09-01T12:08:58.948Z,100652.80
2022-09-01T12:11:32.728Z,100653.20
2022-09-01T12:14:11.884Z,100646.60
2022-09-01T12:16:44.690Z,100651.00
2022-09-01T12:19:26.838Z,100649.80
2022-09-01T12:22:23.189Z,100649.60
2022-09-01T12:24:54.528Z,100644.40
2022-09-01T12:27:25.499Z,100636.60
2022-09-01T12:29:53.548Z,100644.60
2022-09-01T12:32:21.892Z,100639.60
2022-09-01T12:35:11.133Z,100641.20
2022-09-01T12:37:39.169Z,100654.20
2022-09-01T12:40:35.586Z,100651.20
2022-09-01T12:43:03.888Z,100647.20
2022-09-01T12:45:45.829Z,100646.60
2022-09-01T12:48:33.512Z,100644.80
2022-09-01T12:51:29.240Z,100653.60
2022-09-01T12:54:04.803Z,100648.40
2022-09-01T12:56:35.919Z,100646.40
2022-09-01T12:59:15.882Z,100651.00
2022-09-01T13:01:45.093Z,100645.40
2022-09-01T13:04:14.727Z,100640.20
2022-09-01T13:06:42.557Z,100632.00
2022-09-01T13:09:10.399Z,100635.40
2022-09-01T13:14:27.247Z,100634.40
2022-09-01T13:16:55.331Z,100629.00
2022-09-01T13:19:28.780Z,100620.00
2022-09-01T13:21:58.827Z,100627.20
2022-09-01T13:24:30.247Z,100627.80
2022-09-01T13:29:47.328Z,100634.00
2022-09-01T13:32:19.244Z,100632.40
2022-09-01T13:34:53.853Z,100636.60
2022-09-01T13:37:22.589Z,100631.40
2022-09-01T13:39:50.888Z,100629.00
2022-09-01T13:42:19.250Z,100633.40
2022-09-01T13:44:49.626Z,100638.20
2022-09-01T13:47:32.472Z,100639.80
2022-09-01T13:50:10.537Z,100641.00
2022-09-01T13:52:46.647Z,100642.60
2022-09-01T13:55:30.708Z,100644.80
2022-09-01T13:57:59.029Z,100644.00
2022-09-01T14:00:32.283Z,100640.20
2022-09-01T14:03:04.604Z,100639.00
2022-09-01T14:05:37.569Z,100638.60
2022-09-01T14:08:06.668Z,100632.00
2022-09-01T14:10:41.979Z,100633.20
2022-09-01T14:13:11.071Z,100631.20
2022-09-01T14:15:39.228Z,100632.60
2022-09-01T14:18:07.309Z,100634.40
2022-09-01T14:20:41.568Z,100633.40
2022-09-01T14:23:10.833Z,100630.20
2022-09-01T14:25:48.190Z,100636.40
2022-09-01T14:28:20.449Z,100637.80
2022-09-01T14:33:18.687Z,100629.20
2022-09-01T14:35:48.191Z,100621.20
2022-09-01T14:38:17.068Z,100622.00
2022-09-01T14:40:48.656Z,100620.00
2022-09-01T14:43:16.289Z,100616.80
2022-09-01T14:45:46.807Z,100617.20
2022-09-01T14:48:20.149Z,100614.60
2022-09-01T14:50:49.688Z,100610.60
2022-09-01T14:53:17.435Z,100616.20
2022-09-01T14:55:46.689Z,100612.40
2022-09-01T14:58:14.468Z,100609.00
2022-09-01T15:00:43.868Z,100606.80
2022-09-01T15:03:11.629Z,100609.80
2022-09-01T15:05:40.528Z,100607.00
2022-09-01T15:08:15.490Z,100607.80
2022-09-01T15:10:45.568Z,100607.20
2022-09-01T15:13:13.949Z,100602.60
2022-09-01T15:15:46.628Z,100606.20
2022-09-01T15:18:17.419Z,100606.40
2022-09-01T15:20:47.049Z,100607.40
2022-09-01T15:23:26.980Z,100605.00
2022-09-01T15:25:58.959Z,100607.60
2022-09-01T15:28:32.989Z,100604.40
2022-09-01T15:31:03.395Z,100607.80
2022-09-01T15:33:38.423Z,100603.60
2022-09-01T15:36:16.349Z,100596.60
2022-09-01T15:38:50.460Z,100591.00
2022-09-01T15:41:48.130Z,100593.80
2022-09-01T15:44:20.658Z,100596.00
2022-09-01T15:46:51.902Z,100606.40
2022-09-01T15:58:05.262Z,100593.40
2022-09-01T16:00:33.995Z,100589.00
2022-09-01T16:03:03.348Z,100594.40
2022-09-01T16:05:36.588Z,100595.20
2022-09-01T16:08:09.330Z,100596.40
2022-09-01T16:10:42.108Z,100587.60
2022-09-01T16:13:11.308Z,100586.80
2022-09-01T16:16:09.730Z,100588.60
2022-09-01T16:19:09.612Z,100591.40
2022-09-01T16:21:58.568Z,100598.00
2022-09-01T16:24:32.166Z,100600.00
2022-09-01T16:27:03.308Z,100595.20
2022-09-01T16:29:55.430Z,100593.80
2022-09-01T16:32:24.268Z,100593.40
2022-09-01T16:34:54.668Z,100589.20
2022-09-01T16:37:53.449Z,100588.80
2022-09-01T16:41:05.458Z,100587.40
2022-09-01T16:43:59.489Z,100590.00
2022-09-01T16:46:45.604Z,100585.60
2022-09-01T16:50:04.088Z,100592.20
2022-09-01T16:52:58.988Z,100594.20
2022-09-01T16:55:57.997Z,100591.80
2022-09-01T16:59:13.934Z,100591.00
2022-09-01T17:02:23.948Z,100594.40
2022-09-01T17:05:22.128Z,100596.40
2022-09-01T17:08:07.710Z,100595.40
2022-09-01T17:10:47.868Z,100597.80
2022-09-01T17:13:41.949Z,100601.40
2022-09-01T17:16:22.043Z,100595.80
2022-09-01T17:18:57.268Z,100604.00
2022-09-01T17:21:45.069Z,100609.00
2022-09-01T17:24:42.528Z,100611.00
2022-09-01T17:27:20.010Z,100611.40
2022-09-01T17:29:51.527Z,100614.20
2022-09-01T17:36:46.126Z,100618.20
2022-09-01T17:39:38.386Z,100616.00
2022-09-01T17:42:38.485Z,100625.00
2022-09-01T17:45:13.395Z,100629.60
2022-09-01T17:48:15.845Z,100634.60
2022-09-01T17:51:35.125Z,100642.80
2022-09-01T17:54:18.035Z,100652.80
2022-09-01T17:57:11.181Z,100646.40
2022-09-01T18:00:01.280Z,100652.00
2022-09-01T18:02:58.938Z,100654.40
2022-09-01T18:05:30.038Z,100657.60
2022-09-01T18:08:30.110Z,100658.80
2022-09-01T18:11:43.347Z,100664.40
2022-09-01T18:15:01.094Z,100666.40
2022-09-01T18:18:00.908Z,100662.80
2022-09-01T18:20:54.865Z,100663.40
2022-09-01T18:23:25.324Z,100662.80
2022-09-01T18:26:10.564Z,100667.00
2022-09-01T18:28:39.356Z,100671.00
2022-09-01T18:31:18.303Z,100667.20
2022-09-01T18:34:16.374Z,100675.40
2022-09-01T18:37:26.514Z,100674.80
2022-09-01T18:40:19.736Z,100675.60
2022-09-01T18:42:53.272Z,100678.60
2022-09-01T18:46:09.130Z,100676.20
2022-09-01T18:48:49.854Z,100678.60
2022-09-01T18:51:34.906Z,100684.00
2022-09-01T18:54:28.784Z,100686.40
2022-09-01T18:57:01.773Z,100686.80
2022-09-01T19:00:18.782Z,100685.40
2022-09-01T19:03:24.453Z,100693.20
2022-09-01T19:06:07.574Z,100696.80
2022-09-01T19:08:52.328Z,100698.80
2022-09-01T19:11:37.713Z,100693.80
2022-09-01T19:14:51.353Z,100699.40
2022-09-01T19:17:47.992Z,100700.00
2022-09-01T19:20:36.606Z,100700.80
2022-09-01T19:23:39.954Z,100699.60
2022-09-01T19:26:21.684Z,100702.60
2022-09-01T19:28:58.646Z,100702.60
2022-09-01T19:31:45.634Z,100699.40
2022-09-01T19:34:25.722Z,100698.40
2022-09-01T19:37:00.070Z,100699.40
2022-09-01T19:39:39.133Z,100695.20
2022-09-01T19:42:47.973Z,100700.40
2022-09-01T19:45:38.465Z,100701.20
2022-09-01T19:48:18.176Z,100704.00
2022-09-01T19:51:13.936Z,100701.20
2022-09-01T19:54:27.481Z,100709.40
2022-09-01T19:57:17.354Z,100705.60
2022-09-01T19:59:52.819Z,100706.40
2022-09-01T20:03:08.167Z,100709.20
2022-09-01T20:06:17.161Z,100711.60
2022-09-01T20:09:20.313Z,100713.20
2022-09-01T20:11:57.995Z,100713.20
2022-09-01T20:15:08.653Z,100711.20
2022-09-01T20:17:58.723Z,100708.80
2022-09-01T20:20:40.292Z,100708.80
2022-09-01T20:23:44.994Z,100712.40
2022-09-01T20:26:33.935Z,100711.20
2022-09-01T20:29:26.614Z,100708.60
2022-09-01T20:32:00.045Z,100713.20
2022-09-01T20:34:53.453Z,100711.40
2022-09-01T20:37:36.275Z,100712.60
2022-09-01T20:40:18.116Z,100718.40
2022-09-01T20:43:16.133Z,100727.00
2022-09-01T20:45:46.466Z,100720.00
2022-09-01T20:48:22.433Z,100719.40
2022-09-01T20:51:12.172Z,100721.00
2022-09-01T20:53:46.923Z,100722.00
2022-09-01T20:56:34.254Z,100719.00
2022-09-01T20:59:36.223Z,100720.80
2022-09-01T21:02:29.337Z,100720.80
2022-09-01T21:05:13.016Z,100716.00
2022-09-01T21:08:14.995Z,100722.40
2022-09-01T21:10:56.994Z,100723.00
2022-09-01T21:13:44.016Z,100717.40
2022-09-01T21:16:39.794Z,100719.00
2022-09-01T21:19:52.756Z,100718.00
2022-09-01T21:22:22.650Z,100718.20
2022-09-01T21:24:51.971Z,100717.40
2022-09-01T21:27:43.995Z,100721.60
2022-09-01T21:30:15.852Z,100718.40
2022-09-01T21:32:44.813Z,100721.40
2022-09-01T21:35:18.600Z,100722.60
2022-09-01T21:37:47.553Z,100722.60
2022-09-01T21:40:19.882Z,100721.00
2022-09-01T21:43:02.235Z,100731.60
2022-09-01T21:45:35.722Z,100725.60
2022-09-01T21:48:05.433Z,100723.40
2022-09-01T21:50:34.693Z,100718.20
2022-09-01T21:53:03.834Z,100717.40
2022-09-01T21:55:33.453Z,100721.40
2022-09-01T21:58:02.995Z,100719.00
